Time;durP1;ratioP1;P1;durP2;ratioP2;P2;SDS_P1;SDS_P2;PMS_P1;PMS_P2;Temp;Humidity;BMP_temperature;BMP_pressure;BME280_temperature;BME280_humidity;BME280_pressure;Samples;Min_cycle;Max_cycle;Signal;HPM_P1;HPM_P2
2022/06/15 00:01:06;;;;;;;6.07;1.90;;;;;;;13.63;83.52;102153.59;5030725;28;20616;-74
2022/06/15 00:03:34;;;;;;;2.37;1.70;;;;;;;13.55;83.86;102164.50;5013245;28;20225;-73
2022/06/15 00:06:03;;;;;;;3.67;2.00;;;;;;;13.50;83.90;102159.25;5030524;28;20174;-74
2022/06/15 00:08:29;;;;;;;2.47;2.10;;;;;;;13.40;84.32;102164.94;5013358;28;20263;-73
2022/06/15 00:10:54;;;;;;;3.27;2.10;;;;;;;13.41;83.65;102166.72;5029631;28;20746;-74
2022/06/15 00:13:21;;;;;;;3.63;2.40;;;;;;;13.31;84.16;102168.97;5030786;28;20182;-73
2022/06/15 00:15:48;;;;;;;2.47;2.27;;;;;;;13.32;84.15;102166.44;5042264;28;20194;-74
2022/06/15 00:18:13;;;;;;;2.60;2.40;;;;;;;13.31;84.67;102163.81;5050516;28;20666;-74
2022/06/15 00:20:39;;;;;;;4.93;2.40;;;;;;;13.38;84.22;102158.88;5050703;28;20205;-74
2022/06/15 00:23:04;;;;;;;3.27;2.40;;;;;;;13.39;84.74;102159.78;5050234;28;20186;-74
2022/06/15 00:25:30;;;;;;;2.97;2.10;;;;;;;13.35;84.38;102168.22;5032787;28;20237;-74
2022/06/15 00:27:56;;;;;;;2.93;2.10;;;;;;;13.30;84.27;102165.50;5050015;28;20333;-74
2022/06/15 00:30:21;;;;;;;4.10;2.27;;;;;;;13.34;84.58;102166.44;5016098;28;20205;-74
2022/06/15 00:32:48;;;;;;;4.27;2.50;;;;;;;13.40;85.05;102167.50;5031811;28;20247;-74
2022/06/15 00:35:16;;;;;;;4.90;2.53;;;;;;;13.43;85.06;102169.28;5032407;28;20228;-73
2022/06/15 00:37:41;;;;;;;4.17;2.53;;;;;;;13.40;85.43;102164.94;5032550;28;20189;-73
2022/06/15 00:40:08;;;;;;;3.40;2.40;;;;;;;13.39;85.53;102167.50;5031903;28;20671;-73
2022/06/15 00:42:34;;;;;;;4.47;2.97;;;;;;;13.37;85.49;102164.88;5032209;28;20170;-73
2022/06/15 00:44:59;;;;;;;3.40;2.57;;;;;;;13.39;85.47;102159.78;5031781;28;20192;-74
2022/06/15 00:47:31;;;;;;;4.27;2.57;;;;;;;13.40;85.30;102169.22;5032201;28;20576;-74
2022/06/15 00:50:03;;;;;;;3.83;2.60;;;;;;;13.41;86.11;102165.81;5031678;28;20214;-74
2022/06/15 00:52:50;;;;;;;4.80;2.50;;;;;;;13.40;85.85;102175.22;5031828;28;20209;-74
2022/06/15 00:55:25;;;;;;;3.07;2.20;;;;;;;13.45;85.64;102177.94;5049589;28;20764;-74
2022/06/15 00:57:51;;;;;;;3.77;2.30;;;;;;;13.39;86.11;102170.91;5049824;28;20189;-74
2022/06/15 01:00:17;;;;;;;4.57;2.57;;;;;;;13.40;85.25;102184.66;5031853;28;20302;-73
2022/06/15 01:02:43;;;;;;;5.40;2.90;;;;;;;13.36;85.94;102176.00;5049381;28;20255;-74
2022/06/15 01:05:57;;;;;;;4.50;2.97;;;;;;;13.40;85.30;102171.81;5049965;28;20273;-74
2022/06/15 01:08:54;;;;;;;5.20;2.90;;;;;;;13.40;85.23;102164.09;5005793;28;20584;-74
2022/06/15 01:11:37;;;;;;;5.33;2.80;;;;;;;13.38;85.39;102158.88;5031565;28;20251;-74
2022/06/15 01:14:21;;;;;;;4.43;3.00;;;;;;;13.46;84.92;102157.41;5022333;28;20285;-74
2022/06/15 01:17:25;;;;;;;5.67;3.50;;;;;;;13.42;84.86;102152.13;5015548;28;20230;-74
2022/06/15 01:20:11;;;;;;;5.77;3.80;;;;;;;13.32;85.35;102147.53;5011836;28;20706;-74
2022/06/15 01:22:55;;;;;;;5.43;3.67;;;;;;;13.36;85.04;102142.53;5011515;28;20731;-74
2022/06/15 01:25:33;;;;;;;6.00;3.83;;;;;;;13.37;85.32;102144.28;5029927;28;20254;-74
2022/06/15 01:28:44;;;;;;;4.00;3.40;;;;;;;13.35;86.10;102150.22;5029904;28;20183;-74
2022/06/15 01:31:16;;;;;;;6.00;3.83;;;;;;;13.35;85.92;102152.78;4997598;28;20226;-74
2022/06/15 01:33:48;;;;;;;8.27;4.30;;;;;;;13.36;86.02;102152.84;5010827;28;20194;-73
2022/06/15 01:36:35;;;;;;;6.13;4.60;;;;;;;13.35;85.96;102152.78;5011544;28;20190;-73
2022/06/15 01:39:23;;;;;;;5.30;3.73;;;;;;;13.43;85.67;102144.44;5012321;28;20826;-73
2022/06/15 01:41:58;;;;;;;5.23;3.60;;;;;;;13.45;85.45;102144.50;5022030;28;20201;-73
2022/06/15 01:44:34;;;;;;;7.70;4.10;;;;;;;13.41;86.30;102145.22;5011816;28;20689;-74
2022/06/15 01:47:04;;;;;;;5.97;4.20;;;;;;;13.38;86.80;102147.72;5011476;28;20190;-74
2022/06/15 01:49:36;;;;;;;6.23;3.63;;;;;;;13.37;86.52;102148.53;5029284;28;20237;-74
2022/06/15 01:52:05;;;;;;;5.60;3.97;;;;;;;13.38;86.81;102148.59;5011253;28;20249;-74
2022/06/15 01:54:35;;;;;;;5.43;4.23;;;;;;;13.42;86.16;102146.97;5011651;28;20190;-74
2022/06/15 01:57:07;;;;;;;5.17;3.87;;;;;;;13.49;85.48;102147.19;5011241;28;20217;-74
2022/06/15 01:59:44;;;;;;;8.43;4.30;;;;;;;13.50;85.82;102143.81;5011508;28;20198;-74
2022/06/15 02:02:27;;;;;;;5.17;4.33;;;;;;;13.51;85.45;102148.13;4991817;28;20656;-74
2022/06/15 02:05:15;;;;;;;6.93;4.30;;;;;;;13.51;85.60;102137.81;5008763;28;20604;-74
2022/06/15 02:07:53;;;;;;;8.77;5.03;;;;;;;13.49;86.17;102148.91;4995150;28;20186;-74
2022/06/15 02:10:31;;;;;;;9.43;4.73;;;;;;;13.48;85.88;102142.88;5011520;28;20656;-74
2022/06/15 02:13:19;;;;;;;7.67;4.80;;;;;;;13.49;85.42;102143.75;5011316;28;20709;-74
2022/06/15 02:15:51;;;;;;;6.20;5.00;;;;;;;13.46;85.86;102147.13;5011609;28;20186;-73
2022/06/15 02:18:20;;;;;;;7.40;4.90;;;;;;;13.48;86.09;102144.59;5011592;28;20205;-73
2022/06/15 02:20:51;;;;;;;7.43;5.33;;;;;;;13.47;85.97;102142.81;5028834;28;20209;-74
2022/06/15 02:23:18;;;;;;;8.27;5.10;;;;;;;13.46;86.53;102141.09;5011475;28;20285;-74
2022/06/15 02:25:52;;;;;;;5.77;5.13;;;;;;;13.47;86.35;102141.13;5010994;28;20197;-73
2022/06/15 02:28:22;;;;;;;8.03;5.17;;;;;;;13.43;86.61;102139.31;5011511;28;20293;-73
2022/06/15 02:30:47;;;;;;;6.90;5.23;;;;;;;13.44;86.74;102145.34;5010836;28;20256;-74
2022/06/15 02:33:37;;;;;;;7.17;5.10;;;;;;;13.48;86.68;102140.31;5011186;28;20214;-73
2022/06/15 02:36:05;;;;;;;9.13;5.57;;;;;;;13.45;87.09;102142.78;5014938;28;20190;-74
2022/06/15 02:38:32;;;;;;;6.53;4.93;;;;;;;13.41;87.04;102140.97;5015354;28;20182;-74
2022/06/15 02:40:58;;;;;;;6.10;4.70;;;;;;;13.48;86.82;102131.72;5032818;28;20201;-74
2022/06/15 02:43:28;;;;;;;9.00;5.33;;;;;;;13.50;86.42;102132.63;4998018;28;20216;-74
2022/06/15 02:45:58;;;;;;;6.50;5.07;;;;;;;13.48;87.06;102129.16;5014896;28;20183;-73
2022/06/15 02:48:27;;;;;;;7.10;5.23;;;;;;;13.43;87.05;102136.72;5014703;28;20181;-73
2022/06/15 02:50:57;;;;;;;7.57;5.70;;;;;;;13.44;87.11;102135.91;5033010;28;20210;-73
2022/06/15 02:53:27;;;;;;;7.57;4.87;;;;;;;13.47;86.91;102130.84;5014575;28;20202;-74
2022/06/15 02:55:55;;;;;;;6.17;5.07;;;;;;;13.48;87.09;102124.00;5015253;28;20567;-73
2022/06/15 02:58:33;;;;;;;7.57;5.70;;;;;;;13.46;87.27;102129.09;5014402;28;20248;-74
2022/06/15 03:01:00;;;;;;;8.00;5.47;;;;;;;13.43;87.51;102133.28;5015009;28;20568;-74
2022/06/15 03:03:29;;;;;;;8.23;4.90;;;;;;;13.39;87.34;102127.19;4998326;28;20186;-74
2022/06/15 03:06:11;;;;;;;5.63;5.10;;;;;;;13.41;87.06;102138.41;5014852;28;20217;-74
2022/06/15 03:08:37;;;;;;;9.10;4.83;;;;;;;13.43;86.97;102136.72;5014644;28;20182;-74
2022/06/15 03:11:09;;;;;;;6.30;5.10;;;;;;;13.46;86.83;102125.66;5014098;28;20194;-74
2022/06/15 03:13:34;;;;;;;6.60;4.73;;;;;;;13.49;86.55;102121.44;5014476;28;20195;-74
2022/06/15 03:16:03;;;;;;;7.73;4.93;;;;;;;13.53;86.59;102122.44;5014173;28;20281;-74
2022/06/15 03:18:31;;;;;;;6.33;4.57;;;;;;;13.51;86.47;102124.06;5014370;28;20182;-74
2022/06/15 03:21:03;;;;;;;5.13;4.63;;;;;;;13.49;86.84;102125.75;5013918;28;20217;-74
2022/06/15 03:23:31;;;;;;;7.97;4.97;;;;;;;13.46;87.53;102125.66;5014653;28;20272;-74
2022/06/15 03:25:59;;;;;;;8.70;6.17;;;;;;;13.48;87.34;102127.44;5013783;28;20656;-74
2022/06/15 03:28:27;;;;;;;10.00;6.17;;;;;;;13.48;87.84;102130.00;5012536;28;20833;-73
2022/06/15 03:30:53;;;;;;;8.20;5.17;;;;;;;13.53;86.84;102133.59;4994714;28;20293;-74
2022/06/15 03:33:19;;;;;;;8.67;5.07;;;;;;;13.53;87.00;102131.00;5011394;28;20301;-73
2022/06/15 03:35:45;;;;;;;6.87;5.23;;;;;;;13.56;87.41;102132.78;4994571;28;20261;-74
2022/06/15 03:38:17;;;;;;;6.83;4.80;;;;;;;13.56;86.97;102136.25;5013090;28;20183;-74
2022/06/15 03:40:50;;;;;;;6.70;5.30;;;;;;;13.57;87.10;102131.97;5014131;28;20203;-73
2022/06/15 03:43:16;;;;;;;5.83;5.03;;;;;;;13.56;86.90;102133.69;4997055;28;20660;-74
2022/06/15 03:45:43;;;;;;;8.73;5.30;;;;;;;13.61;86.58;102138.94;4996643;28;20183;-74
2022/06/15 03:48:10;;;;;;;6.10;5.00;;;;;;;13.64;87.01;102131.31;4997352;28;20191;-74
2022/06/15 03:50:37;;;;;;;6.60;4.70;;;;;;;13.69;86.62;102124.59;5013613;28;20297;-74
2022/06/15 03:53:04;;;;;;;6.73;5.10;;;;;;;13.72;86.68;102128.09;4997489;28;20214;-73
2022/06/15 03:55:35;;;;;;;6.03;4.70;;;;;;;13.75;86.41;102123.06;5013203;28;20186;-74
2022/06/15 03:58:04;;;;;;;7.53;5.27;;;;;;;13.80;86.19;102125.72;5013871;28;20187;-74
2022/06/15 04:00:31;;;;;;;7.40;4.93;;;;;;;13.80;86.75;102128.31;5013387;28;20369;-74
2022/06/15 04:03:04;;;;;;;6.20;4.57;;;;;;;13.83;86.75;102123.25;5013759;28;20171;-74
2022/06/15 04:05:54;;;;;;;7.93;4.50;;;;;;;13.86;86.40;102133.66;5013507;28;20675;-74
2022/06/15 04:08:35;;;;;;;6.87;5.13;;;;;;;13.89;86.48;102131.13;5013543;28;20261;-74
2022/06/15 04:11:06;;;;;;;7.70;4.53;;;;;;;13.89;87.05;102129.44;5013182;28;20215;-74
2022/06/15 04:13:34;;;;;;;7.13;4.73;;;;;;;13.93;86.95;102132.97;5013404;28;20189;-73
2022/06/15 04:16:04;;;;;;;7.60;4.97;;;;;;;13.98;86.05;102121.06;5013238;28;20181;-74
2022/06/15 04:18:32;;;;;;;6.50;4.97;;;;;;;14.02;86.04;102120.31;5013564;28;20269;-74
2022/06/15 04:21:04;;;;;;;5.20;4.27;;;;;;;14.10;85.26;102123.97;5013270;28;20293;-74
2022/06/15 04:23:30;;;;;;;4.77;4.30;;;;;;;14.14;85.08;102116.34;5012369;28;20190;-74
2022/06/15 04:26:02;;;;;;;6.63;4.17;;;;;;;14.21;85.28;102120.00;5013430;28;20561;-74
2022/06/15 04:28:46;;;;;;;7.70;4.70;;;;;;;14.23;86.39;102118.34;5012995;28;20194;-74
2022/06/15 04:31:22;;;;;;;7.53;4.10;;;;;;;14.30;86.71;102118.53;5030660;28;20249;-74
2022/06/15 04:33:47;;;;;;;6.20;4.00;;;;;;;14.36;86.47;102108.38;4996280;28;20256;-74
2022/06/15 04:36:15;;;;;;;6.80;3.87;;;;;;;14.43;86.09;102112.84;5013129;28;20186;-73
2022/06/15 04:38:44;;;;;;;5.83;3.67;;;;;;;14.49;86.03;102106.94;5012269;28;20187;-73
2022/06/15 04:41:10;;;;;;;4.77;3.80;;;;;;;14.53;86.22;102106.19;5013113;28;20210;-74
2022/06/15 04:43:36;;;;;;;6.60;4.07;;;;;;;14.59;86.75;102116.66;4996383;28;20678;-74
2022/06/15 04:46:06;;;;;;;6.47;3.83;;;;;;;14.65;86.78;102117.66;5012568;28;20729;-73
2022/06/15 04:48:31;;;;;;;5.20;3.63;;;;;;;14.70;86.93;102118.66;5012851;28;20186;-74
2022/06/15 04:51:17;;;;;;;7.53;4.30;;;;;;;14.76;86.96;102118.78;4996185;28;20318;-74
2022/06/15 04:53:46;;;;;;;7.43;4.13;;;;;;;14.82;86.16;102111.19;5012535;28;20281;-74
2022/06/15 04:56:13;;;;;;;7.10;4.00;;;;;;;14.88;85.12;102113.88;5012027;28;20209;-74
2022/06/15 04:58:39;;;;;;;8.30;3.77;;;;;;;14.96;84.72;102111.50;5012889;28;20847;-74
2022/06/15 05:01:07;;;;;;;11.97;3.70;;;;;;;15.02;84.54;102115.09;5012554;28;20209;-74
2022/06/15 05:03:33;;;;;;;10.73;4.20;;;;;;;15.09;85.09;102123.81;5012814;28;20182;-74
2022/06/15 05:06:06;;;;;;;8.23;4.10;;;;;;;15.13;85.02;102115.28;5012702;28;20562;-74
2022/06/15 05:08:32;;;;;;;6.33;3.40;;;;;;;15.19;84.39;102125.78;5030272;28;20304;-74
2022/06/15 05:11:00;;;;;;;8.43;3.97;;;;;;;15.22;84.93;102115.50;5012981;28;20301;-74
2022/06/15 05:13:28;;;;;;;6.90;3.57;;;;;;;15.29;84.59;102114.78;5012128;28;20332;-74
2022/06/15 05:15:53;;;;;;;8.23;3.50;;;;;;;15.38;85.12;102109.84;4996624;28;20194;-74
2022/06/15 05:18:19;;;;;;;7.20;3.70;;;;;;;15.45;84.80;102116.88;5012440;28;20209;-74
2022/06/15 05:20:46;;;;;;;9.10;3.50;;;;;;;15.56;83.69;102111.06;5012594;28;20218;-74
2022/06/15 05:23:18;;;;;;;4.97;3.10;;;;;;;15.64;82.46;102112.09;5011749;28;20930;-73
2022/06/15 05:26:25;;;;;;;6.40;3.23;;;;;;;15.67;81.99;102112.16;4997545;28;20191;-74
2022/06/15 05:28:52;;;;;;;6.20;3.20;;;;;;;15.74;81.77;102116.59;4971454;28;20179;-75
2022/06/15 05:31:21;;;;;;;4.07;2.70;;;;;;;15.84;80.55;102118.50;4982186;28;20219;-74
2022/06/15 05:33:55;;;;;;;4.30;3.03;;;;;;;15.96;80.66;102112.69;5009453;28;20206;-73
2022/06/15 05:36:33;;;;;;;6.80;3.00;;;;;;;16.10;80.16;102106.03;5011130;28;20186;-74
2022/06/15 05:39:01;;;;;;;6.20;2.97;;;;;;;16.18;79.56;102110.53;5011934;28;20194;-73
2022/06/15 05:41:26;;;;;;;4.30;2.90;;;;;;;16.18;79.83;102114.81;5011284;28;20202;-74
2022/06/15 05:43:53;;;;;;;5.47;2.50;;;;;;;16.18;79.20;102120.84;5011835;28;20183;-73
2022/06/15 05:46:24;;;;;;;3.93;3.10;;;;;;;16.09;78.99;102115.53;4995116;28;20186;-74
2022/06/15 05:48:50;;;;;;;5.17;3.10;;;;;;;16.21;78.50;102120.03;4995623;28;20187;-73
2022/06/15 05:51:20;;;;;;;5.33;2.87;;;;;;;16.39;78.69;102123.78;5010982;28;20570;-74
2022/06/15 05:53:46;;;;;;;6.10;2.33;;;;;;;16.42;75.61;102120.41;5011017;28;20186;-71
2022/06/15 05:56:11;;;;;;;3.53;2.57;;;;;;;16.40;74.02;102120.38;5029485;28;20651;-73
2022/06/15 05:58:37;;;;;;;5.20;2.83;;;;;;;16.48;74.21;102118.78;4997727;28;20933;-74
2022/06/15 06:01:28;;;;;;;5.43;2.67;;;;;;;16.54;73.70;102121.47;5024403;28;20214;-74
2022/06/15 06:03:54;;;;;;;6.07;2.70;;;;;;;16.60;72.97;102119.00;5028452;28;20193;-74
2022/06/15 06:06:19;;;;;;;5.70;2.90;;;;;;;16.75;73.92;102120.94;5021072;28;20175;-74
2022/06/15 06:08:45;;;;;;;3.10;2.30;;;;;;;16.82;72.74;102121.06;5018506;28;20731;-73
2022/06/15 06:11:10;;;;;;;4.27;2.10;;;;;;;16.94;71.00;102121.22;5017387;28;20206;-74
2022/06/15 06:13:36;;;;;;;5.63;2.30;;;;;;;17.07;73.18;102120.53;5017001;28;20274;-73
2022/06/15 06:16:01;;;;;;;9.83;3.13;;;;;;;17.12;74.13;102118.00;5019496;28;20191;-75
2022/06/15 06:18:27;;;;;;;5.97;2.63;;;;;;;17.22;74.21;102115.56;5020157;28;20228;-74
2022/06/15 06:20:53;;;;;;;6.23;2.67;;;;;;;17.29;72.79;102119.09;5023633;28;20217;-74
2022/06/15 06:23:19;;;;;;;5.27;2.30;;;;;;;17.37;73.69;102122.66;5020288;28;20257;-75
2022/06/15 06:25:50;;;;;;;4.13;1.90;;;;;;;17.46;72.02;102118.47;5010816;28;20244;-75
2022/06/15 06:28:40;;;;;;;4.67;2.10;;;;;;;17.46;70.82;102115.88;5009515;28;20187;-75
2022/06/15 06:31:09;;;;;;;3.13;1.93;;;;;;;17.63;70.04;102116.97;4995083;28;20208;-75
2022/06/15 06:33:35;;;;;;;5.00;2.17;;;;;;;17.73;69.01;102113.63;5027670;28;20194;-75
2022/06/15 06:36:05;;;;;;;4.57;1.80;;;;;;;17.76;68.06;102117.97;5029170;28;20194;-75
2022/06/15 06:38:30;;;;;;;4.53;2.00;;;;;;;17.80;69.44;102127.50;5014504;28;20241;-75
2022/06/15 06:40:56;;;;;;;2.97;2.00;;;;;;;18.02;70.11;102121.69;5009288;28;20688;-75
2022/06/15 06:43:23;;;;;;;5.40;2.17;;;;;;;18.09;69.49;102119.16;5008612;28;20186;-75
2022/06/15 06:45:49;;;;;;;4.60;2.07;;;;;;;18.02;67.13;102127.75;5009218;28;20553;-75
2022/06/15 06:48:14;;;;;;;3.17;2.10;;;;;;;18.11;67.35;102125.25;5007414;28;20279;-75
2022/06/15 06:50:41;;;;;;;4.73;1.97;;;;;;;18.25;67.10;102121.06;5009093;28;20659;-75
2022/06/15 06:53:12;;;;;;;4.13;2.03;;;;;;;18.41;67.88;102128.13;5009271;28;20219;-75
2022/06/15 06:55:37;;;;;;;3.97;1.90;;;;;;;18.58;67.44;102126.56;5007452;28;20202;-75
2022/06/15 06:58:03;;;;;;;2.10;1.50;;;;;;;18.62;64.33;102127.44;4989515;28;20235;-75
2022/06/15 07:00:31;;;;;;;5.33;1.80;;;;;;;18.71;63.00;102128.38;5008672;28;20207;-75
2022/06/15 07:02:59;;;;;;;4.00;1.67;;;;;;;18.78;60.92;102131.84;5008421;28;20187;-75
2022/06/15 07:05:24;;;;;;;3.37;1.50;;;;;;;18.94;62.14;102133.72;5013764;28;20202;-75
2022/06/15 07:07:50;;;;;;;3.83;1.70;;;;;;;19.12;63.46;102126.03;5028812;28;20217;-75
2022/06/15 07:10:15;;;;;;;6.80;1.97;;;;;;;19.32;65.26;102125.28;5027351;28;20245;-76
2022/06/15 07:12:42;;;;;;;3.90;1.57;;;;;;;19.37;63.41;102128.78;5028207;28;20626;-75
2022/06/15 07:15:10;;;;;;;3.63;1.80;;;;;;;19.30;63.86;102127.00;5017045;28;20715;-75
2022/06/15 07:17:36;;;;;;;4.23;1.50;;;;;;;19.48;63.59;102129.66;5008411;28;20199;-75
2022/06/15 07:20:03;;;;;;;4.73;2.00;;;;;;;19.42;62.08;102129.66;5008374;28;20222;-75
2022/06/15 07:22:29;;;;;;;4.47;1.70;;;;;;;19.55;62.47;102131.44;5011982;28;20191;-75
2022/06/15 07:24:55;;;;;;;5.77;1.90;;;;;;;19.68;61.26;102128.03;5012104;28;20190;-75
2022/06/15 07:27:21;;;;;;;5.57;1.77;;;;;;;19.84;60.85;102123.69;5011106;28;20213;-75
2022/06/15 07:29:47;;;;;;;3.40;1.80;;;;;;;19.66;62.25;102131.50;5009965;28;20935;-75
2022/06/15 07:32:15;;;;;;;4.80;1.67;;;;;;;20.18;60.76;102128.16;5011821;28;20215;-75
2022/06/15 07:34:41;;;;;;;3.87;1.60;;;;;;;20.47;59.35;102129.88;5011539;28;20191;-75
2022/06/15 07:37:07;;;;;;;2.87;1.63;;;;;;;20.39;58.50;102121.22;5011645;28;20183;-75
2022/06/15 07:39:33;;;;;;;4.17;1.30;;;;;;;20.39;59.23;102130.75;5009713;28;20276;-75
2022/06/15 07:41:59;;;;;;;3.40;1.20;;;;;;;20.40;58.57;102122.94;5011684;28;20602;-75
2022/06/15 07:44:27;;;;;;;5.33;1.50;;;;;;;20.27;57.73;102121.19;5011492;28;20194;-75
2022/06/15 07:49:54;;;;;;;2.90;1.30;;;;;;;20.82;58.02;102122.03;5010477;28;20191;-75
2022/06/15 07:49:55;;;;;;;4.80;1.90;;;;;;;20.88;56.80;102124.63;5011615;28;20187;-75
2022/06/15 07:52:37;;;;;;;3.23;1.40;;;;;;;20.98;55.87;102115.94;5012868;28;20294;-75
2022/06/15 07:55:03;;;;;;;3.93;1.70;;;;;;;21.14;56.91;102117.66;5010177;28;20203;-75
2022/06/15 07:57:29;;;;;;;3.70;1.50;;;;;;;21.35;55.37;102112.34;4998967;28;20260;-74
2022/06/15 07:59:55;;;;;;;6.07;2.00;;;;;;;21.58;54.53;102110.50;5010590;28;20317;-75
2022/06/15 08:02:20;;;;;;;3.33;1.60;;;;;;;21.66;52.95;102103.50;5003392;28;20226;-75
2022/06/15 08:04:46;;;;;;;3.53;1.77;;;;;;;22.00;53.11;102116.34;5022513;28;20193;-74
2022/06/15 08:07:13;;;;;;;3.37;1.20;;;;;;;21.96;51.02;102114.63;5024391;28;20194;-74
2022/06/15 08:09:40;;;;;;;3.67;1.60;;;;;;;22.10;51.47;102112.78;5019876;28;20179;-74
2022/06/15 08:12:19;;;;;;;3.60;1.60;;;;;;;21.98;50.90;102117.25;5009857;28;20948;-74
2022/06/15 08:14:46;;;;;;;2.70;1.20;;;;;;;21.83;53.00;102114.75;5010778;28;20222;-73
2022/06/15 08:17:18;;;;;;;3.47;1.30;;;;;;;22.09;51.84;102118.91;5011280;28;20237;-74
2022/06/15 08:19:47;;;;;;;2.80;1.50;;;;;;;22.26;49.88;102118.78;5017646;28;20215;-75
2022/06/15 08:22:13;;;;;;;5.37;1.40;;;;;;;22.27;49.28;102108.31;5011317;28;20193;-75
2022/06/15 08:24:39;;;;;;;4.40;1.60;;;;;;;22.87;50.75;102106.00;4993053;28;20187;-75
2022/06/15 08:27:06;;;;;;;3.60;1.70;;;;;;;22.88;48.79;102113.00;5010952;28;20205;-74
2022/06/15 08:29:33;;;;;;;4.43;1.53;;;;;;;22.83;49.23;102097.34;5009854;28;20594;-74
2022/06/15 08:31:58;;;;;;;3.13;1.10;;;;;;;22.72;47.77;102106.19;5009928;28;20254;-73
2022/06/15 08:34:26;;;;;;;4.50;1.40;;;;;;;23.07;49.34;102097.06;5013254;28;20280;-74
2022/06/15 08:36:51;;;;;;;2.53;1.47;;;;;;;23.35;47.87;102098.53;5019594;28;20606;-74
2022/06/15 08:39:17;;;;;;;3.60;1.50;;;;;;;23.61;47.12;102099.03;5009813;28;20385;-74
2022/06/15 08:41:53;;;;;;;3.97;1.43;;;;;;;23.53;47.28;102087.78;5009262;28;20257;-74
2022/06/15 08:44:34;;;;;;;3.88;1.30;;;;;;;23.80;45.55;102097.03;5010003;28;20286;-74
2022/06/15 08:47:28;;;;;;;4.45;1.23;;;;;;;24.16;45.09;102092.13;4993090;28;20680;-73
2022/06/15 08:50:27;;;;;;;3.47;1.70;;;;;;;24.27;42.69;102090.16;5010258;28;20215;-74
2022/06/15 08:53:02;;;;;;;4.88;1.35;;;;;;;24.45;40.67;102087.22;5010261;28;20214;-73
2022/06/15 08:56:01;;;;;;;4.20;1.75;;;;;;;24.61;43.19;102087.88;5015586;28;20252;-73
2022/06/15 08:58:45;;;;;;;2.03;1.20;;;;;;;24.72;42.61;102086.78;5011932;28;20203;-74
2022/06/15 09:01:32;;;;;;;3.53;1.50;;;;;;;24.98;43.21;102079.28;4997186;28;20720;-74
2022/06/15 09:03:58;;;;;;;3.63;1.70;;;;;;;25.19;42.39;102085.84;4993025;28;20190;-74
2022/06/15 09:06:35;;;;;;;3.67;1.30;;;;;;;25.01;41.13;102086.22;5009576;28;20202;-74
2022/06/15 09:09:20;;;;;;;3.13;1.58;;;;;;;24.44;40.92;102084.66;5006255;28;20194;-74
2022/06/15 09:12:49;;;;;;;2.55;1.50;;;;;;;24.50;39.75;102088.00;5003662;28;20756;-73
2022/06/15 09:15:02;;;;;;;4.00;1.60;;;;;;;23.53;39.11;102093.03;4990427;28;20184;-73
2022/06/15 09:17:29;;;;;;;5.40;1.63;;;;;;;24.33;40.23;102094.44;5008314;28;20187;-74
2022/06/15 09:20:08;;;;;;;2.95;1.30;;;;;;;25.18;40.29;102086.75;5010255;28;20199;-74
2022/06/15 09:22:47;;;;;;;4.60;1.60;;;;;;;24.52;39.41;102091.50;5009879;28;20198;-74
2022/06/15 09:25:22;;;;;;;4.20;1.60;;;;;;;24.35;39.58;102093.53;5009970;28;20269;-74
2022/06/15 09:27:53;;;;;;;5.70;1.60;;;;;;;24.08;39.45;102093.13;5010211;28;20183;-74
2022/06/15 09:30:23;;;;;;;3.63;1.38;;;;;;;24.50;40.64;102085.41;5009577;28;20675;-74
2022/06/15 09:33:00;;;;;;;3.20;1.58;;;;;;;25.49;40.36;102086.09;5009878;28;20215;-74
2022/06/15 09:35:35;;;;;;;2.70;1.50;;;;;;;25.67;38.67;102083.06;5009476;28;20544;-74
2022/06/15 09:38:03;;;;;;;2.88;1.70;;;;;;;25.66;38.49;102078.72;5008940;28;20202;-74
2022/06/15 09:40:47;;;;;;;3.47;1.58;;;;;;;26.01;36.93;102070.88;5009347;28;20227;-74
2022/06/15 09:43:43;;;;;;;3.03;1.60;;;;;;;25.63;37.63;102080.53;5007666;28;20608;-74
2022/06/15 09:46:19;;;;;;;2.72;1.50;;;;;;;25.62;37.35;102071.81;5009328;28;20179;-75
2022/06/15 09:49:07;;;;;;;5.20;2.00;;;;;;;25.28;37.70;102068.19;5009486;28;20286;-74
2022/06/15 09:52:02;;;;;;;6.07;2.28;;;;;;;25.12;38.21;102071.13;5009320;28;20748;-74
2022/06/15 09:54:56;;;;;;;3.88;1.70;;;;;;;25.44;37.76;102068.72;5009631;28;20210;-75
2022/06/15 09:57:23;;;;;;;3.42;1.58;;;;;;;25.55;38.76;102064.09;4989650;28;20175;-74
2022/06/15 09:59:48;;;;;;;2.78;1.52;;;;;;;25.98;37.50;102064.84;4990109;28;20200;-75
2022/06/15 10:02:21;;;;;;;3.25;1.65;;;;;;;26.32;36.78;102070.97;4991977;28;20786;-74
2022/06/15 10:04:47;;;;;;;4.05;2.03;;;;;;;26.37;36.72;102069.97;5008948;28;20168;-74
2022/06/15 10:07:25;;;;;;;3.25;2.03;;;;;;;26.37;35.64;102063.84;5009733;28;20187;-74
2022/06/15 10:10:13;;;;;;;3.40;1.80;;;;;;;25.25;36.80;102062.09;5021993;28;20206;-74
2022/06/15 10:15:47;;;;;;;6.68;2.35;;;;;;;24.89;37.78;102049.75;5028739;28;20194;-74
2022/06/15 10:18:38;;;;;;;6.03;2.22;;;;;;;24.86;37.79;102065.56;5011827;28;20665;-73
2022/06/15 10:21:13;;;;;;;3.22;2.05;;;;;;;24.46;38.35;102061.91;4998545;28;20566;-74
2022/06/15 10:24:03;;;;;;;3.58;2.25;;;;;;;25.01;38.27;102058.22;5009781;28;20192;-75
2022/06/15 10:26:41;;;;;;;4.60;1.92;;;;;;;25.67;38.66;102058.56;5008926;28;20584;-74
2022/06/15 10:29:30;;;;;;;4.65;2.10;;;;;;;26.07;36.05;102046.25;5008156;28;20234;-74
2022/06/15 10:31:58;;;;;;;5.75;2.50;;;;;;;26.17;36.13;102048.59;5007465;28;20242;-74
2022/06/15 10:34:29;;;;;;;4.47;1.70;;;;;;;26.00;35.91;102047.28;5009293;28;20643;-75
2022/06/15 10:37:00;;;;;;;2.88;1.50;;;;;;;26.30;35.63;102044.75;5008115;28;20195;-75
2022/06/15 10:39:32;;;;;;;3.95;1.85;;;;;;;26.60;34.43;102043.09;5009014;28;20195;-74
2022/06/15 10:42:34;;;;;;;4.38;1.90;;;;;;;26.68;36.24;102044.63;5009309;28;20210;-74
2022/06/15 10:45:04;;;;;;;3.22;1.65;;;;;;;26.93;35.47;102040.41;5006621;28;20585;-74
2022/06/15 10:48:00;;;;;;;2.63;1.70;;;;;;;26.88;34.53;102037.03;5009336;28;20604;-74
2022/06/15 10:50:29;;;;;;;3.88;2.15;;;;;;;26.86;34.90;102038.88;4985551;28;20228;-74
2022/06/15 10:53:06;;;;;;;4.72;2.17;;;;;;;26.97;34.58;102036.78;4989369;28;20677;-74
2022/06/15 11:04:29;;;;;;;4.45;1.65;;;;;;;25.74;36.46;102026.88;5012833;28;20187;-74
2022/06/15 11:07:11;;;;;;;3.88;1.98;;;;;;;26.50;36.18;102020.56;5012558;28;20226;-74
2022/06/15 11:09:41;;;;;;;3.08;1.85;;;;;;;26.83;36.89;102014.41;5012864;28;20183;-74
2022/06/15 11:12:25;;;;;;;3.22;1.65;;;;;;;26.79;36.50;102018.00;5012383;28;20203;-74
2022/06/15 11:14:56;;;;;;;4.20;2.10;;;;;;;27.10;36.33;102010.97;4993041;28;20539;-74
2022/06/15 11:20:44;;;;;;;4.78;1.90;;;;;;;26.80;36.53;102017.97;4993083;28;20211;-74
2022/06/15 11:23:24;;;;;;;4.32;1.92;;;;;;;26.02;36.00;102013.97;4992639;28;20188;-74
2022/06/15 11:25:56;;;;;;;5.47;2.08;;;;;;;25.33;36.49;102013.84;4993068;28;20167;-74
2022/06/15 11:28:28;;;;;;;3.58;1.90;;;;;;;26.56;36.99;102009.88;4992754;28;20184;-74
2022/06/15 11:31:14;;;;;;;2.97;1.48;;;;;;;26.30;35.49;101999.22;5003006;28;20242;-74
2022/06/15 11:33:47;;;;;;;5.50;1.60;;;;;;;26.59;34.59;101997.56;5012228;28;20218;-74
2022/06/15 11:36:25;;;;;;;2.65;1.27;;;;;;;27.13;34.95;102001.19;5011790;28;20249;-74
2022/06/15 11:39:10;;;;;;;4.22;1.80;;;;;;;27.27;35.89;101991.16;5012615;28;20178;-74
2022/06/15 11:41:51;;;;;;;3.50;1.60;;;;;;;27.08;35.53;101989.94;5012486;28;20210;-74
2022/06/15 11:44:35;;;;;;;2.22;1.52;;;;;;;27.30;33.11;101987.59;5012118;28;20711;-74
2022/06/15 11:47:21;;;;;;;3.80;1.70;;;;;;;27.17;34.34;101994.09;5010864;28;20194;-74
2022/06/15 11:50:00;;;;;;;3.30;1.85;;;;;;;27.52;34.59;101983.34;5011992;28;20210;-74
2022/06/15 11:52:40;;;;;;;3.25;1.67;;;;;;;27.31;33.89;101976.16;5011730;28;20658;-74
2022/06/15 11:55:31;;;;;;;2.70;1.75;;;;;;;27.52;32.79;101976.31;5012012;28;20808;-74
2022/06/15 11:58:24;;;;;;;4.43;1.88;;;;;;;26.48;33.83;101980.34;5011613;28;20839;-74
2022/06/15 12:01:08;;;;;;;3.17;1.90;;;;;;;25.87;34.44;101983.69;5011906;28;20210;-74
2022/06/15 12:03:39;;;;;;;3.80;1.60;;;;;;;26.97;33.63;101971.00;5011363;28;20198;-74
2022/06/15 12:06:10;;;;;;;3.72;1.77;;;;;;;27.27;35.14;101977.16;5010099;28;20190;-74